Time;durP1;ratioP1;P1;durP2;ratioP2;P2;SDS_P1;SDS_P2;PMS_P1;PMS_P2;Temp;Humidity;BMP_temperature;BMP_pressure;BME280_temperature;BME280_humidity;BME280_pressure;Samples;Min_cycle;Max_cycle;Signal;HPM_P1;HPM_P2
2022/12/19 00:00:45;;;;;;;;;;;;;;;0.79;100.00;101658.03;5044517;28;20222;-73
2022/12/19 00:03:10;;;;;;;;;;;;;;;0.79;100.00;101648.56;5036400;28;20162;-73
2022/12/19 00:05:37;;;;;;;;;;;;;;;0.80;100.00;101650.31;5036829;28;20145;-73
2022/12/19 00:08:03;;;;;;;;;;;;;;;0.82;100.00;101650.31;5036684;28;20112;-73
2022/12/19 00:10:28;;;;;;;;;;;;;;;0.83;100.00;101652.91;5017549;28;19930;-73
2022/12/19 00:12:53;;;;;;;;;;;;;;;0.84;100.00;101661.53;5016977;28;19929;-73
2022/12/19 00:15:19;;;;;;;;;;;;;;;0.85;100.00;101651.22;5033625;28;19921;-73
2022/12/19 00:17:44;;;;;;;;;;;;;;;0.86;100.00;101658.13;5034597;28;19925;-73
2022/12/19 00:20:09;;;;;;;;;;;;;;;0.88;100.00;101635.78;5030199;28;19947;-73
2022/12/19 00:22:34;;;;;;;;;;;;;;;0.88;100.00;101635.78;5036952;28;19975;-73
2022/12/19 00:25:00;;;;;;;;;;;;;;;0.89;100.00;101645.28;5026323;28;20011;-73
2022/12/19 00:27:25;;;;;;;;;;;;;;;0.90;100.00;101628.94;5017302;28;19917;-73
2022/12/19 00:29:50;;;;;;;;;;;;;;;0.91;100.00;101629.78;5028204;28;19928;-73
2022/12/19 00:32:15;;;;;;;;;;;;;;;0.92;100.00;101634.97;5036360;28;19932;-73
2022/12/19 00:34:41;;;;;;;;;;;;;;;0.94;100.00;101625.53;5030221;28;19932;-73
2022/12/19 00:37:06;;;;;;;;;;;;;;;0.95;100.00;101621.25;5016706;28;19996;-73
2022/12/19 00:39:31;;;;;;;;;;;;;;;0.97;100.00;101616.13;5020666;28;19976;-73
2022/12/19 00:41:56;;;;;;;;;;;;;;;0.98;100.00;101612.69;5036837;28;19925;-73
2022/12/19 00:44:22;;;;;;;;;;;;;;;0.99;100.00;101606.69;5036286;28;19921;-73
2022/12/19 00:46:47;;;;;;;;;;;;;;;1.00;100.00;101596.41;5017711;28;20277;-73
2022/12/19 00:49:12;;;;;;;;;;;;;;;1.01;100.00;101597.25;5017455;28;19976;-73
2022/12/19 00:51:38;;;;;;;;;;;;;;;1.03;100.00;101598.13;5034737;28;19991;-73
2022/12/19 00:54:04;;;;;;;;;;;;;;;1.03;100.00;101593.81;5036873;28;20209;-73
2022/12/19 00:56:30;;;;;;;;;;;;;;;1.06;100.00;101590.44;5034429;28;19917;-73
2022/12/19 00:58:56;;;;;;;;;;;;;;;1.05;100.00;101589.53;5039499;28;19970;-73
2022/12/19 01:01:26;;;;;;;;;;;;;;;1.08;100.00;101586.16;5042895;28;20259;-73
2022/12/19 01:03:52;;;;;;;;;;;;;;;1.10;100.00;101566.38;5036875;28;20226;-73
2022/12/19 01:06:17;;;;;;;;;;;;;;;1.09;100.00;101575.84;5025563;28;19925;-73
2022/12/19 01:08:43;;;;;;;;;;;;;;;1.12;100.00;101573.28;5016935;28;20326;-73
2022/12/19 01:11:08;;;;;;;;;;;;;;;1.12;100.00;101575.84;5025138;28;19925;-73
2022/12/19 01:13:34;;;;;;;;;;;;;;;1.13;100.00;101571.59;5036306;28;19917;-73
2022/12/19 01:16:03;;;;;;;;;;;;;;;1.15;100.00;101577.63;5035111;28;19921;-74
2022/12/19 01:18:29;;;;;;;;;;;;;;;1.16;100.00;101571.59;5036659;28;20171;-73
2022/12/19 01:20:54;;;;;;;;;;;;;;;1.18;100.00;101561.28;5033446;28;20056;-73
2022/12/19 01:23:19;;;;;;;;;;;;;;;1.19;100.00;101563.91;5016817;28;19926;-73
2022/12/19 01:25:47;;;;;;;;;;;;;;;1.20;100.00;101562.16;5017027;28;19913;-73
2022/12/19 01:28:13;;;;;;;;;;;;;;;1.21;100.00;101561.34;5016966;28;19921;-73
2022/12/19 01:30:39;;;;;;;;;;;;;;;1.22;100.00;101550.13;5043529;28;20047;-73
2022/12/19 01:33:05;;;;;;;;;;;;;;;1.23;100.00;101541.56;5036986;28;19928;-73
2022/12/19 01:35:30;;;;;;;;;;;;;;;1.24;100.00;101541.59;5033699;28;19925;-73
2022/12/19 01:37:56;;;;;;;;;;;;;;;1.24;100.00;101544.16;5016483;28;19910;-73
2022/12/19 01:40:21;;;;;;;;;;;;;;;1.26;100.00;101533.88;5035061;28;19925;-73
2022/12/19 01:42:46;;;;;;;;;;;;;;;1.28;100.00;101534.75;5016727;28;19980;-73
2022/12/19 01:45:15;;;;;;;;;;;;;;;1.29;100.00;101541.59;5019594;28;20048;-74
2022/12/19 01:47:44;;;;;;;;;;;;;;;1.30;100.00;101530.44;5038956;28;19917;-73
2022/12/19 01:50:12;;;;;;;;;;;;;;;1.31;100.00;101538.22;5039881;28;19921;-73
2022/12/19 01:52:37;;;;;;;;;;;;;;;1.34;100.00;101535.63;5022653;28;19988;-73
2022/12/19 01:55:03;;;;;;;;;;;;;;;1.33;100.00;101521.03;5020312;28;20246;-73
2022/12/19 01:57:28;;;;;;;;;;;;;;;1.34;100.00;101525.31;5034540;28;19913;-73
2022/12/19 01:59:56;;;;;;;;;;;;;;;1.37;100.00;101515.88;5050407;28;20034;-73
2022/12/19 02:02:28;;;;;;;;;;;;;;;1.38;100.00;101509.84;5026886;28;20089;-73
2022/12/19 02:04:54;;;;;;;;;;;;;;;1.39;100.00;101502.13;5019759;28;19986;-74
2022/12/19 02:07:21;;;;;;;;;;;;;;;1.40;100.00;101503.88;5030783;28;19925;-74
2022/12/19 02:09:48;;;;;;;;;;;;;;;1.41;100.00;101503.00;5039229;28;19952;-74
2022/12/19 02:12:13;;;;;;;;;;;;;;;1.43;100.00;101503.88;5030879;28;19920;-74
2022/12/19 02:14:39;;;;;;;;;;;;;;;1.42;100.00;101489.25;5019602;28;19925;-74
2022/12/19 02:17:04;;;;;;;;;;;;;;;1.44;100.00;101474.66;5026147;28;19925;-74
2022/12/19 02:19:39;;;;;;;;;;;;;;;1.45;100.00;101473.78;5039370;28;19917;-73
2022/12/19 02:22:29;;;;;;;;;;;;;;;1.47;100.00;101468.63;5033990;28;19920;-74
2022/12/19 02:25:03;;;;;;;;;;;;;;;1.48;100.00;101470.38;5019481;28;19945;-74
2022/12/19 02:27:47;;;;;;;;;;;;;;;1.50;100.00;101460.91;5026472;28;19919;-74
2022/12/19 02:30:17;;;;;;;;;;;;;;;1.51;100.00;101453.19;5052428;28;19909;-74
2022/12/19 02:33:00;;;;;;;;;;;;;;;1.53;100.00;101455.78;5038736;28;20216;-74
2022/12/19 02:35:43;;;;;;;;;;;;;;;1.55;100.00;101451.47;5019553;28;20067;-74
2022/12/19 02:38:08;;;;;;;;;;;;;;;1.56;100.00;101442.00;5029248;28;20171;-74
2022/12/19 02:40:39;;;;;;;;;;;;;;;1.58;100.00;101432.56;5038866;28;19909;-74
2022/12/19 02:43:05;;;;;;;;;;;;;;;1.60;100.00;101436.00;5031508;28;20119;-74
2022/12/19 02:45:33;;;;;;;;;;;;;;;1.61;100.00;101441.19;5019217;28;19952;-74
2022/12/19 02:47:59;;;;;;;;;;;;;;;1.63;100.00;101439.47;5024745;28;20219;-74
2022/12/19 02:50:25;;;;;;;;;;;;;;;1.66;100.00;101429.16;5039071;28;20126;-74
2022/12/19 02:52:50;;;;;;;;;;;;;;;1.68;100.00;101424.00;5035638;28;19929;-74
2022/12/19 02:55:17;;;;;;;;;;;;;;;1.69;100.00;101423.13;5018666;28;19977;-74
2022/12/19 02:57:58;;;;;;;;;;;;;;;1.69;100.00;101429.19;5019395;28;20235;-74
2022/12/19 03:00:25;;;;;;;;;;;;;;;1.71;100.00;101417.16;5047923;28;19917;-74
2022/12/19 03:03:09;;;;;;;;;;;;;;;1.73;100.00;101423.19;5056650;28;19912;-74
2022/12/19 03:05:42;;;;;;;;;;;;;;;1.75;100.00;101419.72;5038475;28;19909;-74
2022/12/19 03:08:07;;;;;;;;;;;;;;;1.76;100.00;101417.16;5037279;28;19917;-74
2022/12/19 03:10:42;;;;;;;;;;;;;;;1.79;100.00;101411.16;5019158;28;20159;-74
2022/12/19 03:13:11;;;;;;;;;;;;;;;1.80;100.00;101411.16;5019177;28;19932;-74
2022/12/19 03:15:37;;;;;;;;;;;;;;;1.82;100.00;101411.16;5024164;28;19929;-76
2022/12/19 03:18:02;;;;;;;;;;;;;;;1.84;100.00;101407.75;5018757;28;19922;-76
2022/12/19 03:20:35;;;;;;;;;;;;;;;1.84;100.00;101415.50;5036960;28;20315;-76
2022/12/19 03:23:00;;;;;;;;;;;;;;;1.87;100.00;101415.50;5038682;28;20311;-76
2022/12/19 03:25:27;;;;;;;;;;;;;;;1.90;100.00;101409.47;5021403;28;19928;-76
2022/12/19 03:27:54;;;;;;;;;;;;;;;1.91;100.00;101406.91;5018219;28;19921;-76
2022/12/19 03:30:19;;;;;;;;;;;;;;;1.93;100.00;101409.50;5032496;28;19924;-75
2022/12/19 03:32:46;;;;;;;;;;;;;;;1.96;100.00;101403.47;5038084;28;19921;-75
2022/12/19 03:35:19;;;;;;;;;;;;;;;1.98;100.00;101409.50;5026529;28;20224;-75
2022/12/19 03:37:46;;;;;;;;;;;;;;;2.00;100.00;101413.84;5018438;28;19926;-75
2022/12/19 03:40:14;;;;;;;;;;;;;;;2.02;100.00;101406.97;5029742;28;19917;-75
2022/12/19 03:45:43;;;;;;;;;;;;;;;2.08;100.00;101396.63;5023847;28;19939;-75
2022/12/19 03:48:19;;;;;;;;;;;;;;;2.12;100.00;101394.91;5018503;28;19925;-75
2022/12/19 03:50:59;;;;;;;;;;;;;;;2.16;100.00;101393.22;5033554;28;19917;-75
2022/12/19 03:53:34;;;;;;;;;;;;;;;2.18;100.00;101383.72;5037526;28;19940;-75
2022/12/19 03:56:05;;;;;;;;;;;;;;;2.20;100.00;101397.50;5021985;28;19917;-75
2022/12/19 03:58:33;;;;;;;;;;;;;;;2.22;100.00;101399.25;5018113;28;19913;-75
2022/12/19 04:01:00;;;;;;;;;;;;;;;2.24;100.00;101387.22;5041383;28;19909;-75
2022/12/19 04:03:26;;;;;;;;;;;;;;;2.27;100.00;101376.00;5037834;28;19983;-75
2022/12/19 04:05:53;;;;;;;;;;;;;;;2.29;100.00;101382.91;5025090;28;19955;-75
2022/12/19 04:08:19;;;;;;;;;;;;;;;2.32;100.00;101378.59;5017386;28;19932;-75
2022/12/19 04:10:50;;;;;;;;;;;;;;;2.35;100.00;101378.59;5027068;28;20003;-75
2022/12/19 04:13:17;;;;;;;;;;;;;;;2.36;100.00;101381.19;5037874;28;19974;-75
2022/12/19 04:16:03;;;;;;;;;;;;;;;2.40;100.00;101379.47;5029082;28;19928;-75
2022/12/19 04:18:29;;;;;;;;;;;;;;;2.42;100.00;101370.00;5017646;28;20240;-75
2022/12/19 04:21:00;;;;;;;;;;;;;;;2.43;100.00;101380.34;5025496;28;20178;-75
2022/12/19 04:23:33;;;;;;;;;;;;;;;2.46;100.00;101385.53;5036148;28;19916;-75
2022/12/19 04:26:01;;;;;;;;;;;;;;;2.49;100.00;101384.66;5028567;28;19952;-75
2022/12/19 04:28:47;;;;;;;;;;;;;;;2.52;100.00;101389.84;5037028;28;19936;-75
2022/12/19 04:31:13;;;;;;;;;;;;;;;2.56;100.00;101380.38;5025007;28;19913;-75
2022/12/19 04:33:38;;;;;;;;;;;;;;;2.59;100.00;101377.78;5036891;28;19928;-75
2022/12/19 04:36:03;;;;;;;;;;;;;;;2.62;100.00;101359.66;5031620;28;20124;-75
2022/12/19 04:38:28;;;;;;;;;;;;;;;2.65;100.00;101370.88;5016224;28;20106;-75
2022/12/19 04:40:53;;;;;;;;;;;;;;;2.68;100.00;101378.66;5021373;28;19925;-75
2022/12/19 04:43:19;;;;;;;;;;;;;;;2.73;100.00;101393.28;5037130;28;19921;-75
2022/12/19 04:45:44;;;;;;;;;;;;;;;2.76;100.00;101383.81;5036391;28;20119;-75
2022/12/19 04:48:10;;;;;;;;;;;;;;;2.80;100.00;101369.16;5017585;28;19992;-75
2022/12/19 04:50:35;;;;;;;;;;;;;;;2.83;100.00;101390.72;5030018;28;19948;-75
2022/12/19 04:53:00;;;;;;;;;;;;;;;2.86;100.00;101379.53;5036485;28;19933;-75
2022/12/19 04:55:26;;;;;;;;;;;;;;;2.88;100.00;101359.69;5036830;28;19913;-75
2022/12/19 04:57:51;;;;;;;;;;;;;;;2.94;100.00;101372.59;5021178;28;20347;-75
2022/12/19 05:00:16;;;;;;;;;;;;;;;2.98;100.00;101378.63;5044785;28;20265;-75
2022/12/19 05:02:42;;;;;;;;;;;;;;;3.00;100.00;101326.03;5042650;28;19921;-75
2022/12/19 05:05:07;;;;;;;;;;;;;;;3.04;100.00;101374.34;5037079;28;19988;-75
2022/12/19 05:07:32;;;;;;;;;;;;;;;3.08;100.00;101370.03;5026162;28;20216;-75
2022/12/19 05:09:57;;;;;;;;;;;;;;;3.12;100.00;101350.16;5017397;28;19921;-76
2022/12/19 05:12:23;;;;;;;;;;;;;;;3.16;100.00;101357.06;5029044;28;20000;-76
2022/12/19 05:14:48;;;;;;;;;;;;;;;3.19;100.00;101357.91;5017036;28;19921;-75
2022/12/19 05:17:13;;;;;;;;;;;;;;;3.24;100.00;101344.97;5022661;28;19921;-76
2022/12/19 05:19:38;;;;;;;;;;;;;;;3.26;100.00;101344.09;5038911;28;19920;-75
2022/12/19 05:22:04;;;;;;;;;;;;;;;3.29;100.00;101355.31;5038788;28;20096;-76
2022/12/19 05:24:29;;;;;;;;;;;;;;;3.32;100.00;101348.41;5020789;28;20165;-76
2022/12/19 05:26:54;;;;;;;;;;;;;;;3.36;100.00;101352.69;5020727;28;19913;-76
2022/12/19 05:29:20;;;;;;;;;;;;;;;3.39;100.00;101337.16;5033760;28;19948;-76
2022/12/19 05:31:45;;;;;;;;;;;;;;;3.42;100.00;101362.16;5060379;28;19912;-76
2022/12/19 05:34:10;;;;;;;;;;;;;;;3.42;100.00;101350.09;5042698;28;19939;-76
2022/12/19 05:36:35;;;;;;;;;;;;;;;3.46;100.00;101354.41;5040196;28;19925;-76
2022/12/19 05:39:01;;;;;;;;;;;;;;;3.49;100.00;101373.38;5026357;28;19959;-76
2022/12/19 05:41:26;;;;;;;;;;;;;;;3.51;100.00;101364.75;5020568;28;20020;-75
2022/12/19 05:43:52;;;;;;;;;;;;;;;3.53;100.00;101367.31;5031323;28;19921;-76
2022/12/19 05:46:18;;;;;;;;;;;;;;;3.55;100.00;101348.34;5040169;28;20128;-76
2022/12/19 05:48:43;;;;;;;;;;;;;;;3.58;100.00;101360.41;5031361;28;19917;-76
2022/12/19 05:51:08;;;;;;;;;;;;;;;3.60;100.00;101348.31;5020729;28;19988;-76
2022/12/19 05:53:34;;;;;;;;;;;;;;;3.62;100.00;101337.09;5025690;28;19992;-76
2022/12/19 05:56:06;;;;;;;;;;;;;;;3.64;100.00;101343.13;5040198;28;20220;-76
2022/12/19 05:58:32;;;;;;;;;;;;;;;3.66;100.00;101343.13;5035208;28;19910;-76
2022/12/19 06:01:07;;;;;;;;;;;;;;;3.68;100.00;101336.19;5039435;28;19917;-76
2022/12/19 06:03:33;;;;;;;;;;;;;;;3.71;100.00;101354.31;5035855;28;19981;-76
2022/12/19 06:06:02;;;;;;;;;;;;;;;3.72;100.00;101343.06;5034666;28;20131;-76
2022/12/19 06:08:27;;;;;;;;;;;;;;;3.75;100.00;101343.06;5052716;28;19913;-76
2022/12/19 06:10:53;;;;;;;;;;;;;;;3.78;100.00;101334.41;5019469;28;20224;-74
2022/12/19 06:13:18;;;;;;;;;;;;;;;3.79;100.00;101365.50;5019862;28;19930;-76
2022/12/19 06:15:43;;;;;;;;;;;;;;;3.82;100.00;101347.38;5037827;28;20127;-76
2022/12/19 06:18:08;;;;;;;;;;;;;;;3.84;100.00;101357.72;5039576;28;20340;-76
2022/12/19 06:20:34;;;;;;;;;;;;;;;3.86;100.00;101327.47;5023682;28;19926;-76
2022/12/19 06:22:59;;;;;;;;;;;;;;;3.89;100.00;101350.75;5020019;28;19921;-76
2022/12/19 06:25:24;;;;;;;;;;;;;;;3.90;100.00;101334.34;5032374;28;19998;-76
2022/12/19 06:27:49;;;;;;;;;;;;;;;3.92;100.00;101344.72;5039154;28;19932;-75
2022/12/19 06:30:15;;;;;;;;;;;;;;;3.94;100.00;101336.06;5028492;28;19935;-75
2022/12/19 06:32:40;;;;;;;;;;;;;;;3.96;100.00;101326.53;5019533;28;19921;-76
2022/12/19 06:35:05;;;;;;;;;;;;;;;3.98;100.00;101334.31;5020029;28;19924;-76
2022/12/19 06:37:31;;;;;;;;;;;;;;;4.00;100.00;101328.28;5019496;28;19976;-76
2022/12/19 06:39:56;;;;;;;;;;;;;;;4.01;100.00;101345.53;5024197;28;19991;-76
2022/12/19 06:42:21;;;;;;;;;;;;;;;4.03;100.00;101336.00;5038843;28;20186;-75
2022/12/19 06:44:47;;;;;;;;;;;;;;;4.06;100.00;101342.91;5036625;28;20231;-76
2022/12/19 06:47:12;;;;;;;;;;;;;;;4.09;100.00;101331.66;5019520;28;20353;-76
2022/12/19 06:49:38;;;;;;;;;;;;;;;4.11;100.00;101341.16;5018929;28;19925;-76
2022/12/19 06:52:03;;;;;;;;;;;;;;;4.12;100.00;101336.84;5019525;28;19913;-75
2022/12/19 06:54:28;;;;;;;;;;;;;;;4.14;100.00;101341.13;5020191;28;20338;-76
2022/12/19 06:56:53;;;;;;;;;;;;;;;4.15;100.00;101337.69;5021304;28;20028;-76
2022/12/19 06:59:19;;;;;;;;;;;;;;;4.17;100.00;101328.16;5023549;28;19913;-75
2022/12/19 07:01:56;;;;;;;;;;;;;;;4.19;100.00;101339.38;5037273;28;19925;-76
2022/12/19 07:04:51;;;;;;;;;;;;;;;4.21;100.00;101335.03;5038615;28;19921;-76
2022/12/19 07:07:16;;;;;;;;;;;;;;;4.23;100.00;101338.47;5013600;28;19960;-76
2022/12/19 07:09:41;;;;;;;;;;;;;;;4.25;100.00;101343.66;5018478;28;19925;-75
2022/12/19 07:12:07;;;;;;;;;;;;;;;4.29;100.00;101352.28;5034593;28;20101;-76
2022/12/19 07:14:32;;;;;;;;;;;;;;;4.31;100.00;101359.19;5038270;28;19921;-76
2022/12/19 07:16:58;;;;;;;;;;;;;;;4.32;100.00;101355.72;5025274;28;20257;-76
2022/12/19 07:19:24;;;;;;;;;;;;;;;4.34;100.00;101358.31;5018807;28;19922;-76
2022/12/19 07:21:49;;;;;;;;;;;;;;;4.35;100.00;101363.47;5029354;28;19913;-76
2022/12/19 07:24:14;;;;;;;;;;;;;;;4.38;100.00;101365.19;5038404;28;19937;-76
2022/12/19 07:26:41;;;;;;;;;;;;;;;4.41;100.00;101360.84;5029475;28;19913;-76
2022/12/19 07:29:07;;;;;;;;;;;;;;;4.45;100.00;101373.78;5022637;28;19920;-76
2022/12/19 07:31:32;;;;;;;;;;;;;;;4.46;100.00;101371.19;5032249;28;20108;-76
2022/12/19 07:33:57;;;;;;;;;;;;;;;4.47;100.00;101370.31;5018409;28;19952;-76
2022/12/19 07:36:22;;;;;;;;;;;;;;;4.48;100.00;101373.78;5021312;28;19925;-76
2022/12/19 07:38:49;;;;;;;;;;;;;;;4.50;100.00;101369.44;5037004;28;20931;-76
2022/12/19 07:41:15;;;;;;;;;;;;;;;4.51;100.00;101373.75;5035010;28;19913;-76
2022/12/19 07:43:40;;;;;;;;;;;;;;;4.53;100.00;101379.78;5017903;28;19929;-76
2022/12/19 07:46:06;;;;;;;;;;;;;;;4.54;100.00;101382.38;5021070;28;19928;-76
2022/12/19 07:48:31;;;;;;;;;;;;;;;4.59;100.00;101390.13;5019715;28;20038;-76
2022/12/19 07:50:56;;;;;;;;;;;;;;;4.60;100.00;101389.25;5017815;28;19959;-76
2022/12/19 07:53:21;;;;;;;;;;;;;;;4.61;100.00;101388.38;5028923;28;19934;-76
2022/12/19 07:55:50;;;;;;;;;;;;;;;4.63;100.00;101388.38;5025596;28;19925;-76
2022/12/19 07:58:16;;;;;;;;;;;;;;;4.62;100.00;101390.13;5030857;28;20264;-76
2022/12/19 08:00:41;;;;;;;;;;;;;;;4.64;100.00;101397.84;5054259;28;19913;-76
2022/12/19 08:03:06;;;;;;;;;;;;;;;4.64;100.00;101406.53;5029228;28;19956;-76
2022/12/19 08:05:33;;;;;;;;;;;;;;;4.67;100.00;101400.44;5036404;28;19983;-76
2022/12/19 08:07:58;;;;;;;;;;;;;;;4.68;100.00;101399.59;5029427;28;20204;-76
2022/12/19 08:10:23;;;;;;;;;;;;;;;4.70;100.00;101403.88;5022710;28;20079;-76
2022/12/19 08:12:49;;;;;;;;;;;;;;;4.73;100.00;101402.97;5026651;28;19925;-76
2022/12/19 08:15:14;;;;;;;;;;;;;;;4.74;100.00;101405.56;5024747;28;19925;-76
2022/12/19 08:17:39;;;;;;;;;;;;;;;4.74;100.00;101408.16;5024001;28;20171;-76
2022/12/19 08:20:08;;;;;;;;;;;;;;;4.77;100.00;101413.34;5031981;28;20247;-76
2022/12/19 08:22:33;;;;;;;;;;;;;;;4.78;100.00;101415.06;5024211;28;20141;-76
2022/12/19 08:24:59;;;;;;;;;;;;;;;4.80;100.00;101402.06;5018338;28;19928;-76
2022/12/19 08:27:25;;;;;;;;;;;;;;;4.81;100.00;101403.78;5031819;28;19921;-76
2022/12/19 08:29:50;;;;;;;;;;;;;;;4.83;100.00;101409.84;5029790;28;20299;-76
2022/12/19 08:32:15;;;;;;;;;;;;;;;4.85;100.00;101407.22;5029461;28;19936;-76
2022/12/19 08:34:41;;;;;;;;;;;;;;;4.86;100.00;101409.81;5023437;28;19940;-76
2022/12/19 08:37:06;;;;;;;;;;;;;;;4.87;100.00;101400.28;5032425;28;19964;-76
2022/12/19 08:39:31;;;;;;;;;;;;;;;4.88;100.00;101408.06;5035610;28;19961;-76
2022/12/19 08:41:57;;;;;;;;;;;;;;;4.90;100.00;101416.69;5034923;28;20232;-76
2022/12/19 08:44:22;;;;;;;;;;;;;;;4.92;100.00;101411.50;5035111;28;20200;-76
2022/12/19 08:46:47;;;;;;;;;;;;;;;4.93;100.00;101413.19;5033115;28;19925;-76
2022/12/19 08:49:12;;;;;;;;;;;;;;;4.94;100.00;101412.34;5029629;28;19918;-76
2022/12/19 08:51:38;;;;;;;;;;;;;;;4.95;100.00;101416.69;5026886;28;19932;-76
2022/12/19 08:54:03;;;;;;;;;;;;;;;4.96;100.00;101418.38;5040896;28;19929;-76
2022/12/19 08:56:28;;;;;;;;;;;;;;;4.97;100.00;101413.19;5039751;28;19913;-76
2022/12/19 08:58:54;;;;;;;;;;;;;;;4.98;100.00;101414.91;5035798;28;20029;-76
2022/12/19 09:01:22;;;;;;;;;;;;;;;5.00;100.00;101396.72;5038420;28;19928;-76
2022/12/19 09:03:47;;;;;;;;;;;;;;;5.00;100.00;101404.50;5037495;28;19936;-76
2022/12/19 09:06:13;;;;;;;;;;;;;;;5.01;100.00;101398.44;5046741;28;19921;-75
2022/12/19 09:08:39;;;;;;;;;;;;;;;5.02;100.00;101402.78;5040325;28;20270;-75
2022/12/19 09:11:08;;;;;;;;;;;;;;;5.03;100.00;101404.47;5047591;28;19948;-75
2022/12/19 09:13:34;;;;;;;;;;;;;;;5.06;100.00;101406.16;5037365;28;19925;-76
2022/12/19 09:16:00;;;;;;;;;;;;;;;5.08;100.00;101407.91;5035403;28;20002;-76
2022/12/19 09:18:25;;;;;;;;;;;;;;;5.12;100.00;101416.53;5029642;28;19913;-76
2022/12/19 09:20:54;;;;;;;;;;;;;;;5.14;100.00;101418.22;5031189;28;19994;-76
2022/12/19 09:23:20;;;;;;;;;;;;;;;5.16;100.00;101418.22;5033438;28;20124;-76
2022/12/19 09:25:45;;;;;;;;;;;;;;;5.17;100.00;101423.41;5029546;28;20015;-76
2022/12/19 09:28:10;;;;;;;;;;;;;;;5.19;100.00;101425.97;5031618;28;19917;-76
2022/12/19 09:30:36;;;;;;;;;;;;;;;5.20;100.00;101417.31;5032040;28;20161;-76
2022/12/19 09:33:01;;;;;;;;;;;;;;;5.22;100.00;101423.38;5027992;28;20228;-76
2022/12/19 09:35:27;;;;;;;;;;;;;;;5.22;100.00;101420.78;5031569;28;20480;-76
2022/12/19 09:37:52;;;;;;;;;;;;;;;5.26;100.00;101425.06;5032349;28;20054;-76
2022/12/19 09:40:17;;;;;;;;;;;;;;;5.27;100.00;101424.16;5026562;28;20008;-76
2022/12/19 09:42:56;;;;;;;;;;;;;;;5.30;100.00;101421.53;5026540;28;20116;-76
2022/12/19 09:45:32;;;;;;;;;;;;;;;5.31;100.00;101428.47;5024244;28;19918;-76
2022/12/19 09:47:58;;;;;;;;;;;;;;;5.35;100.00;101424.13;5027821;28;19921;-76
2022/12/19 09:50:23;;;;;;;;;;;;;;;5.36;100.00;101426.66;5023536;28;19927;-76
2022/12/19 09:52:54;;;;;;;;;;;;;;;5.38;100.00;101416.28;5026882;28;19921;-76
2022/12/19 09:55:25;;;;;;;;;;;;;;;5.41;100.00;101421.44;5027890;28;19921;-75
2022/12/19 09:57:50;;;;;;;;;;;;;;;5.44;100.00;101426.63;5029351;28;19917;-76
2022/12/19 10:00:19;;;;;;;;;;;;;;;5.48;100.00;101430.03;5034574;28;20191;-76
2022/12/19 10:02:51;;;;;;;;;;;;;;;5.49;100.00;101429.16;5024415;28;19917;-76
2022/12/19 10:05:30;;;;;;;;;;;;;;;5.50;100.00;101441.28;5029599;28;19928;-76
2022/12/19 10:07:55;;;;;;;;;;;;;;;5.50;100.00;101431.75;5022271;28;19921;-76
2022/12/19 10:10:29;;;;;;;;;;;;;;;5.51;100.00;101430.00;5024377;28;20331;-76
2022/12/19 10:13:14;;;;;;;;;;;;;;;5.51;100.00;101430.88;5023694;28;20163;-76
2022/12/19 10:15:39;;;;;;;;;;;;;;;5.51;100.00;101430.88;5032697;28;19921;-76
2022/12/19 10:18:23;;;;;;;;;;;;;;;5.52;100.00;101426.53;5031408;28;19913;-76
2022/12/19 10:21:01;;;;;;;;;;;;;;;5.53;100.00;101429.13;5033802;28;19979;-76
2022/12/19 10:23:35;;;;;;;;;;;;;;;5.55;100.00;101435.16;5032415;28;19924;-76
2022/12/19 10:26:05;;;;;;;;;;;;;;;5.56;100.00;101434.25;5029774;28;19921;-76
2022/12/19 10:28:44;;;;;;;;;;;;;;;5.58;100.00;101439.44;5026080;28;19928;-76
2022/12/19 10:31:09;;;;;;;;;;;;;;;5.58;100.00;101447.25;5036279;28;19921;-76
2022/12/19 10:33:41;;;;;;;;;;;;;;;5.59;100.00;101446.38;5032190;28;19921;-76
2022/12/19 10:36:09;;;;;;;;;;;;;;;5.60;100.00;101421.25;5038106;28;19909;-76
2022/12/19 10:38:42;;;;;;;;;;;;;;;5.62;100.00;101429.88;5040132;28;19931;-76
2022/12/19 10:41:22;;;;;;;;;;;;;;;5.62;100.00;101429.88;5044101;28;19935;-76
2022/12/19 10:43:48;;;;;;;;;;;;;;;5.64;100.00;101425.53;5036120;28;19945;-76
2022/12/19 10:46:33;;;;;;;;;;;;;;;5.65;100.00;101414.28;5047205;28;20317;-76
2022/12/19 10:48:58;;;;;;;;;;;;;;;5.68;100.00;101414.25;5037145;28;19935;-76
2022/12/19 10:51:26;;;;;;;;;;;;;;;5.69;100.00;101415.94;5034398;28;19925;-76
2022/12/19 10:53:56;;;;;;;;;;;;;;;5.71;100.00;101409.00;5033511;28;19959;-76
2022/12/19 10:56:25;;;;;;;;;;;;;;;5.73;100.00;101407.22;5032470;28;20226;-76
2022/12/19 10:58:56;;;;;;;;;;;;;;;5.74;100.00;101404.63;5028823;28;20232;-76
2022/12/19 11:01:25;;;;;;;;;;;;;;;5.77;100.00;101411.53;5024947;28;19929;-76
2022/12/19 11:03:51;;;;;;;;;;;;;;;5.79;100.00;101414.13;5026526;28;19928;-76
2022/12/19 11:06:46;;;;;;;;;;;;;;;5.80;100.00;101416.69;5041293;28;19918;-76
2022/12/19 11:09:19;;;;;;;;;;;;;;;5.84;100.00;101422.69;5022403;28;19927;-76
2022/12/19 11:11:45;;;;;;;;;;;;;;;5.84;100.00;101405.38;5033654;28;20220;-76
2022/12/19 11:14:21;;;;;;;;;;;;;;;5.85;100.00;101420.09;5031585;28;19929;-76
2022/12/19 11:16:46;;;;;;;;;;;;;;;5.87;100.00;101428.72;5029309;28;19920;-76
2022/12/19 11:19:25;;;;;;;;;;;;;;;5.89;100.00;101415.72;5031433;28;20267;-76
2022/12/19 11:21:50;;;;;;;;;;;;;;;5.90;100.00;101420.06;5034340;28;19916;-76
2022/12/19 11:24:23;;;;;;;;;;;;;;;5.89;100.00;101429.56;5032314;28;20004;-76
2022/12/19 11:26:49;;;;;;;;;;;;;;;5.90;100.00;101427.84;5032289;28;19948;-76
2022/12/19 11:29:38;;;;;;;;;;;;;;;5.92;100.00;101424.34;5029655;28;20002;-75
2022/12/19 11:32:03;;;;;;;;;;;;;;;5.95;100.00;101420.88;5025961;28;19920;-75
2022/12/19 11:34:29;;;;;;;;;;;;;;;5.96;100.00;101413.06;5021792;28;20004;-75
2022/12/19 11:37:18;;;;;;;;;;;;;;;5.98;100.00;101422.59;5026545;28;20008;-75
2022/12/19 11:39:46;;;;;;;;;;;;;;;5.99;100.00;101406.13;5004202;28;20104;-75
2022/12/19 11:42:20;;;;;;;;;;;;;;;5.99;100.00;101406.13;5020240;28;19917;-75
2022/12/19 11:44:54;;;;;;;;;;;;;;;6.01;100.00;101402.59;5024352;28;20118;-75
2022/12/19 11:47:20;;;;;;;;;;;;;;;6.04;100.00;101399.97;5018924;28;19933;-75
2022/12/19 11:49:50;;;;;;;;;;;;;;;6.06;100.00;101398.22;5023784;28;19921;-75
2022/12/19 11:52:35;;;;;;;;;;;;;;;6.06;100.00;101398.22;5028329;28;19913;-75
2022/12/19 11:55:03;;;;;;;;;;;;;;;6.08;100.00;101388.66;5025281;28;19925;-75
2022/12/19 11:57:29;;;;;;;;;;;;;;;6.09;100.00;101381.69;5028225;28;19940;-75
2022/12/19 11:59:54;;;;;;;;;;;;;;;6.09;100.00;101381.69;5032747;28;20334;-75
2022/12/19 12:02:38;;;;;;;;;;;;;;;6.09;100.00;101372.19;5033506;28;19967;-75
2022/12/19 12:05:06;;;;;;;;;;;;;;;6.10;100.00;101371.28;5036122;28;19956;-75
2022/12/19 12:07:34;;;;;;;;;;;;;;;6.13;100.00;101375.56;5032043;28;19924;-75
2022/12/19 12:10:06;;;;;;;;;;;;;;;6.13;100.00;101373.84;5030246;28;19921;-75
2022/12/19 12:12:31;;;;;;;;;;;;;;;6.15;100.00;101363.44;5032853;28;19925;-76
2022/12/19 12:15:07;;;;;;;;;;;;;;;6.15;100.00;101348.69;5032724;28;19925;-75
2022/12/19 12:18:01;;;;;;;;;;;;;;;6.16;100.00;101349.53;5034142;28;19913;-75
2022/12/19 12:20:26;;;;;;;;;;;;;;;6.16;100.00;101357.31;4993455;28;20228;-75
2022/12/19 12:22:55;;;;;;;;;;;;;;;6.18;100.00;101354.72;5027334;28;19974;-75
2022/12/19 12:25:37;;;;;;;;;;;;;;;6.18;100.00;101342.56;5024307;28;19922;-75
2022/12/19 12:28:14;;;;;;;;;;;;;;;6.19;100.00;101349.50;5028183;28;20190;-75
2022/12/19 12:30:50;;;;;;;;;;;;;;;6.20;100.00;101365.94;5024226;28;19988;-75
2022/12/19 12:33:21;;;;;;;;;;;;;;;6.21;100.00;101345.13;5024397;28;19932;-75
2022/12/19 12:35:55;;;;;;;;;;;;;;;6.22;100.00;101349.47;5022510;28;19944;-75
2022/12/19 12:38:33;;;;;;;;;;;;;;;6.24;100.00;101341.59;5022986;28;19992;-75
2022/12/19 12:41:17;;;;;;;;;;;;;;;6.25;100.00;101345.94;5025694;28;19929;-75
2022/12/19 12:43:59;;;;;;;;;;;;;;;6.24;100.00;101332.09;5021948;28;19961;-75